createdAt,value
2017-07-05T00:00:21.874Z,1014.58
2017-07-05T00:01:02.451Z,1014.55
2017-07-05T00:01:43.025Z,1014.58
2017-07-05T00:02:23.636Z,1014.58
2017-07-05T00:03:04.254Z,1014.56
2017-07-05T00:03:44.826Z,1014.57
2017-07-05T00:04:25.402Z,1014.56
2017-07-05T00:05:05.986Z,1014.56
2017-07-05T00:05:46.573Z,1014.5
2017-07-05T00:06:27.145Z,1014.55
2017-07-05T00:07:07.725Z,1014.52
2017-07-05T00:07:48.303Z,1014.51
2017-07-05T00:08:28.884Z,1014.55
2017-07-05T00:09:09.441Z,1014.52
2017-07-05T00:09:50.011Z,1014.55
2017-07-05T00:10:30.601Z,1014.5
2017-07-05T00:11:11.173Z,1014.54
2017-07-05T00:11:51.737Z,1014.57
2017-07-05T00:12:32.313Z,1014.53
2017-07-05T00:13:12.885Z,1014.52
2017-07-05T00:13:53.456Z,1014.49
2017-07-05T00:14:34.024Z,1014.49
2017-07-05T00:15:14.590Z,1014.51
2017-07-05T00:15:55.194Z,1014.55
2017-07-05T00:16:35.766Z,1014.56
2017-07-05T00:17:16.333Z,1014.54
2017-07-05T00:17:56.908Z,1014.61
2017-07-05T00:18:37.475Z,1014.57
2017-07-05T00:19:18.052Z,1014.53
2017-07-05T00:19:58.625Z,1014.59
2017-07-05T00:20:39.190Z,1014.56
2017-07-05T00:21:19.771Z,1014.61
2017-07-05T00:22:00.350Z,1014.58
2017-07-05T00:22:40.956Z,1014.56
2017-07-05T00:23:21.496Z,1014.55
2017-07-05T00:24:02.061Z,1014.55
2017-07-05T00:24:42.633Z,1014.58
2017-07-05T00:25:23.271Z,1014.58
2017-07-05T00:26:03.858Z,1014.52
2017-07-05T00:26:44.445Z,1014.57
2017-07-05T00:27:25.003Z,1014.55
2017-07-05T00:28:05.592Z,1014.51
2017-07-05T00:28:46.183Z,1014.5
2017-07-05T00:29:26.758Z,1014.54
2017-07-05T00:30:07.375Z,1014.51
2017-07-05T00:30:47.961Z,1014.52
2017-07-05T00:31:28.550Z,1014.49
2017-07-05T00:32:09.156Z,1014.52
2017-07-05T00:32:49.744Z,1014.55
2017-07-05T00:33:30.369Z,1014.54
2017-07-05T00:34:10.957Z,1014.55
2017-07-05T00:34:51.546Z,1014.6
2017-07-05T00:35:32.113Z,1014.56
2017-07-05T00:36:12.683Z,1014.59
2017-07-05T00:36:53.257Z,1014.6
2017-07-05T00:37:33.865Z,1014.57
2017-07-05T00:38:14.451Z,1014.55
2017-07-05T00:38:55.041Z,1014.5
2017-07-05T00:39:35.624Z,1014.5
2017-07-05T00:40:16.207Z,1014.44
2017-07-05T00:40:56.778Z,1014.47
2017-07-05T00:41:37.355Z,1014.48
2017-07-05T00:42:17.934Z,1014.48
2017-07-05T00:42:58.486Z,1014.48
2017-07-05T00:43:39.067Z,1014.43
2017-07-05T00:44:19.647Z,1014.46
2017-07-05T00:45:00.214Z,1014.4
2017-07-05T00:45:40.789Z,1014.41
2017-07-05T00:46:21.366Z,1014.39
2017-07-05T00:47:01.966Z,1014.38
2017-07-05T00:47:42.527Z,1014.37
2017-07-05T00:48:23.094Z,1014.34
2017-07-05T00:49:03.670Z,1014.31
2017-07-05T00:49:44.243Z,1014.33
2017-07-05T00:50:24.819Z,1014.29
2017-07-05T00:51:05.396Z,1014.31
2017-07-05T00:51:45.961Z,1014.34
2017-07-05T00:52:26.525Z,1014.32
2017-07-05T00:53:07.092Z,1014.29
2017-07-05T00:53:47.647Z,1014.33
2017-07-05T00:54:28.214Z,1014.31
2017-07-05T00:55:08.796Z,1014.36
2017-07-05T00:55:49.375Z,1014.31
2017-07-05T00:56:29.943Z,1014.32
2017-07-05T00:57:10.515Z,1014.32
2017-07-05T00:57:51.081Z,1014.31
2017-07-05T00:58:31.660Z,1014.3
2017-07-05T00:59:12.242Z,1014.28
2017-07-05T00:59:52.807Z,1014.3
2017-07-05T01:00:33.378Z,1014.28
2017-07-05T01:01:13.937Z,1014.3
2017-07-05T01:01:54.506Z,1014.28
2017-07-05T01:02:35.079Z,1014.27
2017-07-05T01:03:15.632Z,1014.27
2017-07-05T01:03:56.213Z,1014.25
2017-07-05T01:04:36.782Z,1014.25
2017-07-05T01:05:17.379Z,1014.22
2017-07-05T01:05:57.908Z,1014.21
2017-07-05T01:06:38.618Z,1014.21
2017-07-05T01:07:19.185Z,1014.2
2017-07-05T01:07:59.759Z,1014.21
2017-07-05T01:08:40.336Z,1014.15
2017-07-05T01:09:20.925Z,1014.17
2017-07-05T01:10:01.492Z,1014.18
2017-07-05T01:10:42.070Z,1014.17
2017-07-05T01:11:22.645Z,1014.18
2017-07-05T01:12:03.223Z,1014.18
2017-07-05T01:12:43.785Z,1014.26
2017-07-05T01:13:24.356Z,1014.24
2017-07-05T01:14:04.922Z,1014.18
2017-07-05T01:14:45.524Z,1014.16
2017-07-05T01:15:26.093Z,1014.13
2017-07-05T01:16:06.670Z,1014.18
2017-07-05T01:16:47.243Z,1014.17
2017-07-05T01:17:27.815Z,1014.14
2017-07-05T01:18:08.383Z,1014.13
2017-07-05T01:18:48.957Z,1014.13
2017-07-05T01:19:29.526Z,1014.1
2017-07-05T01:20:10.093Z,1014.09
2017-07-05T01:20:50.668Z,1014.07
2017-07-05T01:21:31.234Z,1014.07
2017-07-05T01:22:11.801Z,1014.02
2017-07-05T01:22:52.403Z,1014.06
2017-07-05T01:23:32.985Z,1014.05
2017-07-05T01:24:13.551Z,1014.05
2017-07-05T01:24:54.125Z,1014.06
2017-07-05T01:25:34.671Z,1014.07
2017-07-05T01:26:15.260Z,1014.13
2017-07-05T01:26:55.826Z,1014.12
2017-07-05T01:27:36.388Z,1014.12
2017-07-05T01:28:16.974Z,1014.1
2017-07-05T01:28:57.588Z,1014.09
2017-07-05T01:29:38.154Z,1014.05
2017-07-05T01:30:18.734Z,1014.1
2017-07-05T01:30:59.296Z,1014.07
2017-07-05T01:31:39.862Z,1014.06
2017-07-05T01:32:20.430Z,1014.06
2017-07-05T01:33:01.017Z,1014.05
2017-07-05T01:33:41.604Z,1014.08
2017-07-05T01:34:22.170Z,1014.06
2017-07-05T01:35:02.749Z,1014.07
2017-07-05T01:35:43.362Z,1014.09
2017-07-05T01:36:23.928Z,1014.1
2017-07-05T01:37:04.537Z,1014.1
2017-07-05T01:37:45.117Z,1014.09
2017-07-05T01:38:25.688Z,1014.11
2017-07-05T01:39:06.280Z,1014.11
2017-07-05T01:39:46.863Z,1014.12
2017-07-05T01:40:27.486Z,1014.15
2017-07-05T01:41:08.053Z,1014.19
2017-07-05T01:41:48.633Z,1014.15
2017-07-05T01:42:29.206Z,1014.12
2017-07-05T01:43:09.785Z,1014.12
2017-07-05T01:43:50.352Z,1014.11
2017-07-05T01:44:30.924Z,1014.13
2017-07-05T01:45:11.491Z,1014.09
2017-07-05T01:45:52.093Z,1014.09
2017-07-05T01:46:32.654Z,1014.1
2017-07-05T01:47:13.233Z,1014.07
2017-07-05T01:47:53.794Z,1014.05
2017-07-05T01:48:34.390Z,1014.05
2017-07-05T01:49:14.953Z,1014.04
2017-07-05T01:49:55.531Z,1014.08
2017-07-05T01:50:36.103Z,1014.06
2017-07-05T01:51:16.703Z,1014.1
2017-07-05T01:51:57.261Z,1014.09
2017-07-05T01:52:37.839Z,1014.1
2017-07-05T01:53:18.423Z,1014.13
2017-07-05T01:53:58.991Z,1014.15
2017-07-05T01:54:39.580Z,1014.12
2017-07-05T01:55:20.193Z,1014.14
2017-07-05T01:56:00.751Z,1014.11
2017-07-05T01:56:41.321Z,1014.1
2017-07-05T01:57:21.905Z,1014.12
2017-07-05T01:58:02.466Z,1014.14
2017-07-05T01:58:43.054Z,1014.16
2017-07-05T01:59:23.624Z,1014.19
2017-07-05T02:00:04.200Z,1014.17
2017-07-05T02:00:44.785Z,1014.22
2017-07-05T02:01:25.382Z,1014.23
2017-07-05T02:02:05.944Z,1014.16
2017-07-05T02:02:46.519Z,1014.15
2017-07-05T02:03:27.094Z,1014.13
2017-07-05T02:04:07.668Z,1014.13
2017-07-05T02:04:48.245Z,1014.16
2017-07-05T02:05:28.809Z,1014.13
2017-07-05T02:06:09.386Z,1014.11
2017-07-05T02:06:49.950Z,1014.09
2017-07-05T02:07:30.542Z,1014.08
2017-07-05T02:08:11.116Z,1014.02
2017-07-05T02:08:51.688Z,1014.03
2017-07-05T02:09:32.287Z,1014.01
2017-07-05T02:10:12.850Z,1013.99
2017-07-05T02:10:53.418Z,1014.05
2017-07-05T02:11:33.988Z,1014.06
2017-07-05T02:12:14.550Z,1014.03
2017-07-05T02:12:55.120Z,1014.04
2017-07-05T02:13:35.694Z,1014.05
2017-07-05T02:14:16.385Z,1014.03
2017-07-05T02:14:56.962Z,1014.07
2017-07-05T02:15:37.588Z,1014.05
2017-07-05T02:16:18.105Z,1014.06
2017-07-05T02:16:58.686Z,1014.03
2017-07-05T02:17:39.261Z,1013.99
2017-07-05T02:18:19.820Z,1013.97
2017-07-05T02:19:00.395Z,1013.94
2017-07-05T02:19:40.962Z,1013.94
2017-07-05T02:20:21.553Z,1013.91
2017-07-05T02:21:02.121Z,1013.95
2017-07-05T02:21:42.685Z,1013.91
2017-07-05T02:22:23.255Z,1013.95
2017-07-05T02:23:03.823Z,1013.93
2017-07-05T02:23:44.400Z,1013.96
2017-07-05T02:24:24.978Z,1013.91
2017-07-05T02:25:05.543Z,1013.9
2017-07-05T02:25:46.103Z,1013.87
2017-07-05T02:26:26.665Z,1013.88
2017-07-05T02:27:07.241Z,1013.88
2017-07-05T02:27:47.809Z,1013.81
2017-07-05T02:28:28.381Z,1013.82
2017-07-05T02:29:08.965Z,1013.82
2017-07-05T02:29:49.549Z,1013.77
2017-07-05T02:30:30.122Z,1013.76
2017-07-05T02:31:10.694Z,1013.72
2017-07-05T02:31:51.268Z,1013.72
2017-07-05T02:32:31.838Z,1013.75
2017-07-05T02:33:12.408Z,1013.72
2017-07-05T02:33:53.011Z,1013.75
2017-07-05T02:34:33.574Z,1013.75
2017-07-05T02:35:14.158Z,1013.74
2017-07-05T02:35:54.728Z,1013.75
2017-07-05T02:36:35.341Z,1013.78
2017-07-05T02:37:15.924Z,1013.82
2017-07-05T02:37:56.492Z,1013.83
2017-07-05T02:38:37.080Z,1013.81
2017-07-05T02:39:17.648Z,1013.81
2017-07-05T02:39:58.219Z,1013.85
2017-07-05T02:40:38.778Z,1013.84
2017-07-05T02:41:19.350Z,1013.84
2017-07-05T02:41:59.972Z,1013.86
2017-07-05T02:42:40.488Z,1013.87
2017-07-05T02:43:21.127Z,1013.9
2017-07-05T02:44:01.710Z,1013.83
2017-07-05T02:44:42.362Z,1013.83
2017-07-05T02:45:22.929Z,1013.79
2017-07-05T02:46:03.503Z,1013.83
2017-07-05T02:46:44.086Z,1013.82
2017-07-05T02:47:24.702Z,1013.86
2017-07-05T02:48:05.291Z,1013.84
2017-07-05T02:48:45.858Z,1013.85
2017-07-05T02:49:26.440Z,1013.87
2017-07-05T02:50:07.031Z,1013.84
2017-07-05T02:50:47.597Z,1013.82
2017-07-05T02:51:28.165Z,1013.81
2017-07-05T02:52:08.739Z,1013.81
2017-07-05T02:52:49.307Z,1013.85
2017-07-05T02:53:29.900Z,1013.82
2017-07-05T02:54:10.497Z,1013.82
2017-07-05T02:54:51.060Z,1013.79
2017-07-05T02:55:31.630Z,1013.81
2017-07-05T02:56:12.208Z,1013.79
2017-07-05T02:56:52.771Z,1013.78
2017-07-05T02:57:33.345Z,1013.75
2017-07-05T02:58:13.928Z,1013.76
2017-07-05T02:58:54.513Z,1013.74
2017-07-05T02:59:35.118Z,1013.73
2017-07-05T03:00:15.689Z,1013.75
2017-07-05T03:00:56.266Z,1013.71
2017-07-05T03:01:36.856Z,1013.76
2017-07-05T03:02:17.422Z,1013.72
2017-07-05T03:02:58.016Z,1013.73
2017-07-05T03:03:38.594Z,1013.73
2017-07-05T03:04:19.164Z,1013.71
2017-07-05T03:04:59.725Z,1013.7
2017-07-05T03:05:40.296Z,1013.68
2017-07-05T03:06:20.876Z,1013.66
2017-07-05T03:07:01.458Z,1013.64
2017-07-05T03:07:42.047Z,1013.66
2017-07-05T03:08:22.658Z,1013.61
2017-07-05T03:09:03.232Z,1013.61
2017-07-05T03:09:43.815Z,1013.67
2017-07-05T03:10:24.397Z,1013.68
2017-07-05T03:11:04.992Z,1013.65
2017-07-05T03:11:45.595Z,1013.68
2017-07-05T03:12:26.196Z,1013.66
2017-07-05T03:13:06.815Z,1013.63
2017-07-05T03:13:47.382Z,1013.61
2017-07-05T03:14:27.963Z,1013.62
2017-07-05T03:15:08.541Z,1013.6
2017-07-05T03:15:49.143Z,1013.61
2017-07-05T03:16:29.708Z,1013.63
2017-07-05T03:17:10.281Z,1013.68
2017-07-05T03:17:50.847Z,1013.67
2017-07-05T03:18:31.416Z,1013.74
2017-07-05T03:19:11.996Z,1013.74
2017-07-05T03:19:52.567Z,1013.78
2017-07-05T03:20:33.129Z,1013.8
2017-07-05T03:21:13.707Z,1013.77
2017-07-05T03:21:54.276Z,1013.81
2017-07-05T03:22:34.850Z,1013.78
2017-07-05T03:23:15.414Z,1013.79
2017-07-05T03:23:55.977Z,1013.8
2017-07-05T03:24:36.544Z,1013.77
2017-07-05T03:25:17.120Z,1013.77
2017-07-05T03:25:57.697Z,1013.8
2017-07-05T03:26:38.272Z,1013.78
2017-07-05T03:27:18.863Z,1013.8
2017-07-05T03:27:59.457Z,1013.79
2017-07-05T03:28:40.038Z,1013.79
2017-07-05T03:29:20.599Z,1013.76
2017-07-05T03:30:01.177Z,1013.77
2017-07-05T03:30:41.768Z,1013.77
2017-07-05T03:31:22.372Z,1013.74
2017-07-05T03:32:02.966Z,1013.74
2017-07-05T03:32:43.591Z,1013.78
2017-07-05T03:33:24.168Z,1013.77
2017-07-05T03:34:04.734Z,1013.79
2017-07-05T03:34:45.325Z,1013.82
2017-07-05T03:35:25.923Z,1013.76
2017-07-05T03:36:06.517Z,1013.77
2017-07-05T03:36:47.096Z,1013.76
2017-07-05T03:37:27.669Z,1013.76
2017-07-05T03:38:08.238Z,1013.77
2017-07-05T03:38:48.801Z,1013.78
2017-07-05T03:39:29.372Z,1013.73
2017-07-05T03:40:09.949Z,1013.74
2017-07-05T03:40:50.566Z,1013.78
2017-07-05T03:41:31.144Z,1013.79
2017-07-05T03:42:11.722Z,1013.75
2017-07-05T03:42:52.349Z,1013.73
2017-07-05T03:43:32.944Z,1013.72
2017-07-05T03:44:13.519Z,1013.69
2017-07-05T03:44:54.115Z,1013.72
2017-07-05T03:45:34.710Z,1013.73
2017-07-05T03:46:15.329Z,1013.75
2017-07-05T03:46:55.894Z,1013.73
2017-07-05T03:47:36.475Z,1013.74
2017-07-05T03:48:17.056Z,1013.74
2017-07-05T03:48:57.687Z,1013.73
2017-07-05T03:49:38.281Z,1013.71
2017-07-05T03:50:18.851Z,1013.72
2017-07-05T03:50:59.411Z,1013.71
2017-07-05T03:51:39.977Z,1013.73
2017-07-05T03:52:20.556Z,1013.73
2017-07-05T03:53:01.146Z,1013.68
2017-07-05T03:53:41.718Z,1013.72
2017-07-05T03:54:22.312Z,1013.69
2017-07-05T03:55:02.878Z,1013.7
2017-07-05T03:55:43.455Z,1013.71
2017-07-05T03:56:24.015Z,1013.71
2017-07-05T03:57:04.597Z,1013.72
2017-07-05T03:57:45.174Z,1013.74
2017-07-05T03:58:25.753Z,1013.77
2017-07-05T03:59:06.331Z,1013.75
2017-07-05T03:59:46.893Z,1013.74
2017-07-05T04:00:27.472Z,1013.78
2017-07-05T04:01:08.038Z,1013.76
2017-07-05T04:01:48.602Z,1013.77
2017-07-05T04:02:29.164Z,1013.76
2017-07-05T04:03:09.735Z,1013.73
2017-07-05T04:03:50.305Z,1013.74
2017-07-05T04:04:30.884Z,1013.72
2017-07-05T04:05:11.443Z,1013.71
2017-07-05T04:05:52.028Z,1013.66
2017-07-05T04:06:32.604Z,1013.69
2017-07-05T04:07:13.194Z,1013.67
2017-07-05T04:07:53.758Z,1013.68
2017-07-05T04:08:34.309Z,1013.66
2017-07-05T04:09:14.880Z,1013.67
2017-07-05T04:09:55.458Z,1013.68
2017-07-05T04:10:36.067Z,1013.65
2017-07-05T04:11:16.627Z,1013.63
2017-07-05T04:11:57.190Z,1013.64
2017-07-05T04:12:37.767Z,1013.64
2017-07-05T04:13:18.321Z,1013.65
2017-07-05T04:13:58.907Z,1013.66
2017-07-05T04:14:39.477Z,1013.64
2017-07-05T04:15:20.046Z,1013.64
2017-07-05T04:16:00.665Z,1013.64
2017-07-05T04:16:41.209Z,1013.64
2017-07-05T04:17:21.788Z,1013.63
2017-07-05T04:18:02.369Z,1013.58
2017-07-05T04:18:42.974Z,1013.56
2017-07-05T04:19:23.542Z,1013.6
2017-07-05T04:20:04.126Z,1013.6
2017-07-05T04:20:44.709Z,1013.58
2017-07-05T04:21:25.302Z,1013.6
2017-07-05T04:22:05.878Z,1013.63
2017-07-05T04:22:46.452Z,1013.59
2017-07-05T04:23:27.018Z,1013.61
2017-07-05T04:24:07.594Z,1013.6
2017-07-05T04:24:48.171Z,1013.53
2017-07-05T04:25:28.733Z,1013.53
2017-07-05T04:26:09.783Z,1013.55
2017-07-05T04:26:50.371Z,1013.6
2017-07-05T04:27:30.935Z,1013.61
2017-07-05T04:28:11.529Z,1013.58
2017-07-05T04:28:52.104Z,1013.63
2017-07-05T04:29:32.692Z,1013.59
2017-07-05T04:30:13.320Z,1013.66
2017-07-05T04:30:53.919Z,1013.67
2017-07-05T04:31:34.501Z,1013.66
2017-07-05T04:32:15.070Z,1013.71
2017-07-05T04:32:55.645Z,1013.71
2017-07-05T04:33:36.214Z,1013.74
2017-07-05T04:34:16.786Z,1013.76
2017-07-05T04:34:57.356Z,1013.74
2017-07-05T04:35:37.921Z,1013.7
2017-07-05T04:36:18.494Z,1013.76
2017-07-05T04:36:59.060Z,1013.72
2017-07-05T04:37:39.637Z,1013.73
2017-07-05T04:38:20.216Z,1013.68
2017-07-05T04:39:00.782Z,1013.7
2017-07-05T04:39:41.413Z,1013.66
2017-07-05T04:40:21.987Z,1013.66
2017-07-05T04:41:02.677Z,1013.66
2017-07-05T04:41:43.258Z,1013.63
2017-07-05T04:42:23.869Z,1013.65
2017-07-05T04:43:04.445Z,1013.66
2017-07-05T04:43:45.025Z,1013.67
2017-07-05T04:44:25.592Z,1013.69
2017-07-05T04:45:06.155Z,1013.7
2017-07-05T04:45:46.730Z,1013.69
2017-07-05T04:46:27.308Z,1013.71
2017-07-05T04:47:07.890Z,1013.74
2017-07-05T04:47:48.480Z,1013.69
2017-07-05T04:48:29.070Z,1013.68
2017-07-05T04:49:09.660Z,1013.65
2017-07-05T04:49:50.260Z,1013.69
2017-07-05T04:50:30.825Z,1013.7
2017-07-05T04:51:11.391Z,1013.71
2017-07-05T04:51:51.978Z,1013.71
2017-07-05T04:52:32.575Z,1013.8
2017-07-05T04:53:13.150Z,1013.78
2017-07-05T04:53:53.722Z,1013.79
2017-07-05T04:54:34.287Z,1013.77
2017-07-05T04:55:14.875Z,1013.78
2017-07-05T04:55:55.455Z,1013.8
2017-07-05T04:56:36.028Z,1013.78
2017-07-05T04:57:16.620Z,1013.79
2017-07-05T04:57:57.189Z,1013.72
2017-07-05T04:58:37.756Z,1013.83
2017-07-05T04:59:18.376Z,1013.79
2017-07-05T04:59:59.019Z,1013.77
2017-07-05T05:00:39.588Z,1013.78
2017-07-05T05:01:20.174Z,1013.8
2017-07-05T05:02:00.758Z,1013.78
2017-07-05T05:02:41.349Z,1013.77
2017-07-05T05:03:21.926Z,1013.8
2017-07-05T05:04:02.506Z,1013.82
2017-07-05T05:04:43.146Z,1013.8
2017-07-05T05:05:23.704Z,1013.8
2017-07-05T05:06:04.294Z,1013.86
2017-07-05T05:06:44.923Z,1013.79
2017-07-05T05:07:25.477Z,1013.85
2017-07-05T05:08:06.050Z,1013.85
2017-07-05T05:08:46.635Z,1013.83
2017-07-05T05:09:27.231Z,1013.82
2017-07-05T05:10:07.801Z,1013.84
2017-07-05T05:10:48.445Z,1013.86
2017-07-05T05:11:29.040Z,1013.84
2017-07-05T05:12:09.630Z,1013.87
2017-07-05T05:12:50.203Z,1013.87
2017-07-05T05:13:30.797Z,1013.9
2017-07-05T05:14:11.372Z,1013.85
2017-07-05T05:14:51.944Z,1013.86
2017-07-05T05:15:32.557Z,1013.89
2017-07-05T05:16:13.078Z,1013.87
2017-07-05T05:16:53.673Z,1013.91
2017-07-05T05:17:34.241Z,1013.94
2017-07-05T05:18:14.830Z,1013.99
2017-07-05T05:18:55.430Z,1014.02
2017-07-05T05:19:36.028Z,1014.05
2017-07-05T05:20:16.606Z,1014.07
2017-07-05T05:20:57.198Z,1014.05
2017-07-05T05:21:37.762Z,1014.07
2017-07-05T05:22:18.353Z,1014.05
2017-07-05T05:22:58.949Z,1014.07
2017-07-05T05:23:39.535Z,1014.06
2017-07-05T05:24:20.133Z,1014.09
2017-07-05T05:25:00.706Z,1014.07
2017-07-05T05:25:41.292Z,1014.12
2017-07-05T05:26:21.897Z,1014.16
2017-07-05T05:27:02.457Z,1014.13
2017-07-05T05:27:43.067Z,1014.11
2017-07-05T05:28:23.650Z,1014.2
2017-07-05T05:29:04.258Z,1014.16
2017-07-05T05:29:44.897Z,1014.19
2017-07-05T05:30:25.541Z,1014.17
2017-07-05T05:31:06.067Z,1014.16
2017-07-05T05:31:46.626Z,1014.17
2017-07-05T05:32:27.191Z,1014.18
2017-07-05T05:33:07.761Z,1014.14
2017-07-05T05:33:48.336Z,1014.14
2017-07-05T05:34:28.952Z,1014.18
2017-07-05T05:35:09.528Z,1014.18
2017-07-05T05:35:50.107Z,1014.15
2017-07-05T05:36:30.688Z,1014.09
2017-07-05T05:37:11.258Z,1014.13
2017-07-05T05:37:51.863Z,1014.11
2017-07-05T05:38:32.422Z,1014.11
2017-07-05T05:39:13.006Z,1014.12
2017-07-05T05:39:53.619Z,1014.13
2017-07-05T05:40:34.187Z,1014.11
2017-07-05T05:41:14.770Z,1014.12
2017-07-05T05:41:55.361Z,1014.04
2017-07-05T05:42:35.919Z,1014.04
2017-07-05T05:43:16.483Z,1014.06
2017-07-05T05:43:57.068Z,1014.05
2017-07-05T05:44:37.680Z,1014.04
2017-07-05T05:45:18.256Z,1014.04
2017-07-05T05:45:58.831Z,1014
2017-07-05T05:46:39.412Z,1014.05
2017-07-05T05:47:19.999Z,1014.04
2017-07-05T05:48:00.587Z,1014.05
2017-07-05T05:48:41.157Z,1014.09
2017-07-05T05:49:21.754Z,1014.06
2017-07-05T05:50:02.342Z,1014.1
2017-07-05T05:50:42.909Z,1014.08
2017-07-05T05:51:23.468Z,1014.1
2017-07-05T05:52:04.035Z,1014.08
2017-07-05T05:52:44.608Z,1014.09
2017-07-05T05:53:25.177Z,1014.12
2017-07-05T05:54:05.750Z,1014.14
2017-07-05T05:54:46.311Z,1014.14
2017-07-05T05:55:26.906Z,1014.17
2017-07-05T05:56:07.470Z,1014.16
2017-07-05T05:56:48.053Z,1014.18
2017-07-05T05:57:28.612Z,1014.19
2017-07-05T05:58:09.184Z,1014.21
2017-07-05T05:58:49.759Z,1014.23
2017-07-05T05:59:30.346Z,1014.22
2017-07-05T06:00:10.905Z,1014.28
2017-07-05T06:00:51.477Z,1014.32
2017-07-05T06:01:32.051Z,1014.33
2017-07-05T06:02:12.623Z,1014.37
2017-07-05T06:02:53.209Z,1014.38
2017-07-05T06:03:33.827Z,1014.43
2017-07-05T06:04:14.372Z,1014.4
2017-07-05T06:04:54.940Z,1014.4
2017-07-05T06:05:35.514Z,1014.42
2017-07-05T06:06:16.091Z,1014.45
2017-07-05T06:06:56.664Z,1014.44
2017-07-05T06:07:37.229Z,1014.44
2017-07-05T06:08:17.817Z,1014.46
2017-07-05T06:08:58.401Z,1014.43
2017-07-05T06:09:38.969Z,1014.45
2017-07-05T06:10:19.552Z,1014.42
2017-07-05T06:11:00.138Z,1014.38
2017-07-05T06:11:40.708Z,1014.4
2017-07-05T06:12:21.285Z,1014.37
2017-07-05T06:13:01.855Z,1014.39
2017-07-05T06:13:42.423Z,1014.35
2017-07-05T06:14:22.999Z,1014.36
2017-07-05T06:15:03.587Z,1014.36
2017-07-05T06:15:44.152Z,1014.36
2017-07-05T06:16:24.716Z,1014.41
2017-07-05T06:17:05.278Z,1014.37
2017-07-05T06:17:45.854Z,1014.4
2017-07-05T06:18:26.411Z,1014.38
2017-07-05T06:19:07.007Z,1014.4
2017-07-05T06:19:47.573Z,1014.4
2017-07-05T06:20:28.143Z,1014.45
2017-07-05T06:21:08.708Z,1014.47
2017-07-05T06:21:49.326Z,1014.46
2017-07-05T06:22:29.890Z,1014.48
2017-07-05T06:23:10.464Z,1014.45
2017-07-05T06:23:51.028Z,1014.48
2017-07-05T06:24:31.618Z,1014.46
2017-07-05T06:25:12.195Z,1014.49
2017-07-05T06:25:52.769Z,1014.51
2017-07-05T06:26:33.369Z,1014.48
2017-07-05T06:27:13.965Z,1014.52
2017-07-05T06:27:54.535Z,1014.53
2017-07-05T06:28:35.103Z,1014.51
2017-07-05T06:29:15.668Z,1014.49
2017-07-05T06:29:56.245Z,1014.53
2017-07-05T06:30:36.804Z,1014.52
2017-07-05T06:31:17.375Z,1014.52
2017-07-05T06:31:57.958Z,1014.54
2017-07-05T06:32:38.559Z,1014.5
2017-07-05T06:33:19.129Z,1014.51
2017-07-05T06:33:59.719Z,1014.5
2017-07-05T06:34:40.288Z,1014.55
2017-07-05T06:35:20.858Z,1014.52
2017-07-05T06:36:01.438Z,1014.5
2017-07-05T06:36:42.012Z,1014.5
2017-07-05T06:37:22.602Z,1014.52
2017-07-05T06:38:03.170Z,1014.47
2017-07-05T06:38:43.765Z,1014.49
2017-07-05T06:39:24.336Z,1014.52
2017-07-05T06:40:04.923Z,1014.53
2017-07-05T06:40:45.489Z,1014.51
2017-07-05T06:41:26.090Z,1014.48
2017-07-05T06:42:06.670Z,1014.48
2017-07-05T06:42:47.251Z,1014.47
2017-07-05T06:43:27.844Z,1014.46
2017-07-05T06:44:08.424Z,1014.47
2017-07-05T06:44:48.992Z,1014.46
2017-07-05T06:45:29.563Z,1014.52
2017-07-05T06:46:10.135Z,1014.49
2017-07-05T06:46:50.720Z,1014.52
2017-07-05T06:47:31.294Z,1014.47
2017-07-05T06:48:11.889Z,1014.45
2017-07-05T06:48:52.455Z,1014.44
2017-07-05T06:49:33.030Z,1014.4
2017-07-05T06:50:13.601Z,1014.43
2017-07-05T06:50:54.161Z,1014.42
2017-07-05T06:51:34.719Z,1014.45
2017-07-05T06:52:15.293Z,1014.43
2017-07-05T06:52:55.857Z,1014.49
2017-07-05T06:53:36.428Z,1014.48
2017-07-05T06:54:16.999Z,1014.49
2017-07-05T06:54:57.571Z,1014.49
2017-07-05T06:55:38.154Z,1014.53
2017-07-05T06:56:18.733Z,1014.53
2017-07-05T06:56:59.333Z,1014.59
2017-07-05T06:57:39.902Z,1014.6
2017-07-05T06:58:20.500Z,1014.61
2017-07-05T06:59:01.084Z,1014.65
2017-07-05T06:59:41.642Z,1014.67
2017-07-05T07:00:22.218Z,1014.68
2017-07-05T07:01:02.791Z,1014.69
2017-07-05T07:01:43.378Z,1014.69
2017-07-05T07:02:23.977Z,1014.67
2017-07-05T07:03:04.547Z,1014.67
2017-07-05T07:03:45.134Z,1014.65
2017-07-05T07:04:25.716Z,1014.67
2017-07-05T07:05:06.315Z,1014.64
2017-07-05T07:05:46.892Z,1014.62
2017-07-05T07:06:27.456Z,1014.68
2017-07-05T07:07:08.067Z,1014.67
2017-07-05T07:07:48.583Z,1014.65
2017-07-05T07:08:29.166Z,1014.65
2017-07-05T07:09:09.737Z,1014.64
2017-07-05T07:09:50.315Z,1014.63
2017-07-05T07:10:30.874Z,1014.62
2017-07-05T07:11:11.465Z,1014.58
2017-07-05T07:11:52.036Z,1014.58
2017-07-05T07:12:32.615Z,1014.57
2017-07-05T07:13:13.180Z,1014.59
2017-07-05T07:13:53.777Z,1014.58
2017-07-05T07:14:34.346Z,1014.63
2017-07-05T07:15:14.939Z,1014.59
2017-07-05T07:15:55.529Z,1014.65
2017-07-05T07:16:36.130Z,1014.64
2017-07-05T07:17:16.687Z,1014.59
2017-07-05T07:17:57.286Z,1014.64
2017-07-05T07:18:37.853Z,1014.63
2017-07-05T07:19:18.413Z,1014.59
2017-07-05T07:19:58.998Z,1014.62
2017-07-05T07:20:39.573Z,1014.6
2017-07-05T07:21:20.135Z,1014.65
2017-07-05T07:22:00.711Z,1014.65
2017-07-05T07:22:41.283Z,1014.59
2017-07-05T07:23:21.846Z,1014.62
2017-07-05T07:24:02.445Z,1014.62
2017-07-05T07:24:43.014Z,1014.62
2017-07-05T07:25:23.597Z,1014.69
2017-07-05T07:26:04.161Z,1014.62
2017-07-05T07:26:44.745Z,1014.66
2017-07-05T07:27:25.347Z,1014.62
2017-07-05T07:28:05.915Z,1014.6
2017-07-05T07:28:46.495Z,1014.57
2017-07-05T07:29:27.066Z,1014.57
2017-07-05T07:30:07.657Z,1014.59
2017-07-05T07:30:48.221Z,1014.52
2017-07-05T07:31:28.810Z,1014.61
2017-07-05T07:32:09.404Z,1014.61
2017-07-05T07:32:49.976Z,1014.59
2017-07-05T07:33:30.553Z,1014.62
2017-07-05T07:34:11.204Z,1014.6
2017-07-05T07:34:51.755Z,1014.63
2017-07-05T07:35:32.314Z,1014.6
2017-07-05T07:36:12.882Z,1014.63
2017-07-05T07:36:53.469Z,1014.6
2017-07-05T07:37:34.042Z,1014.58
2017-07-05T07:38:14.607Z,1014.62
2017-07-05T07:38:55.177Z,1014.58
2017-07-05T07:39:35.738Z,1014.53
2017-07-05T07:40:16.333Z,1014.53
2017-07-05T07:40:56.896Z,1014.53
2017-07-05T07:41:37.472Z,1014.52
2017-07-05T07:42:18.097Z,1014.59
2017-07-05T07:42:58.664Z,1014.56
2017-07-05T07:43:39.228Z,1014.53
2017-07-05T07:44:19.810Z,1014.57
2017-07-05T07:45:00.384Z,1014.55
2017-07-05T07:45:40.979Z,1014.59
2017-07-05T07:46:21.565Z,1014.56
2017-07-05T07:47:02.145Z,1014.56
2017-07-05T07:47:42.770Z,1014.55
2017-07-05T07:48:23.959Z,1014.52
2017-07-05T07:49:04.704Z,1014.54
2017-07-05T07:49:45.303Z,1014.53
2017-07-05T07:50:25.894Z,1014.54
2017-07-05T07:51:06.486Z,1014.54
2017-07-05T07:51:47.121Z,1014.54
2017-07-05T07:52:27.980Z,1014.57
2017-07-05T07:53:08.547Z,1014.58
2017-07-05T07:53:49.150Z,1014.58
2017-07-05T07:54:30.080Z,1014.54
2017-07-05T07:55:10.914Z,1014.5
2017-07-05T07:55:51.483Z,1014.53
2017-07-05T07:56:32.047Z,1014.48
2017-07-05T07:57:12.636Z,1014.5
2017-07-05T07:57:53.202Z,1014.5
2017-07-05T07:58:33.765Z,1014.49
2017-07-05T07:59:14.359Z,1014.48
2017-07-05T07:59:55.015Z,1014.49
2017-07-05T08:00:35.567Z,1014.43
2017-07-05T08:01:16.155Z,1014.47
2017-07-05T08:01:56.728Z,1014.41
2017-07-05T08:02:37.334Z,1014.44
2017-07-05T08:03:17.903Z,1014.47
2017-07-05T08:03:58.669Z,1014.41
2017-07-05T08:04:39.467Z,1014.46
2017-07-05T08:05:20.069Z,1014.42
2017-07-05T08:06:00.798Z,1014.41
2017-07-05T08:06:41.489Z,1014.43
2017-07-05T08:07:23.521Z,1014.45
2017-07-05T08:08:04.097Z,1014.47
2017-07-05T08:08:44.768Z,1014.43
2017-07-05T08:09:25.465Z,1014.49
2017-07-05T08:10:06.066Z,1014.46
2017-07-05T08:10:46.935Z,1014.45
2017-07-05T08:11:27.511Z,1014.46
2017-07-05T08:12:08.113Z,1014.42